METAR Formatted Surface Weather Observation
Issued by NWS

Home | Current Version | Previous Version | Text Only | Print | Product List | Glossary On
Versions: 1 2 3 4 5 6 7 8 9
473
SAUS41 KGYX 282123 COR
MTRNKT
SPECI KNKT 282115Z 21015G22KT 10SM SCT022 27/22 A3011 RMK AO2
T02720222



USA.gov is the U.S. government's official web portal to all federal, state and local government web resources and services.